Phoenix, Arizona
Traffic Map
Current Weather Conditions
Phoenix, Arizona
Broken Clouds
Broken Clouds
57°
Feels Like: 57°
Wind Chill: 57° Ceiling: 25000
Heat Index: 57° Visibility: 10mi
Dew Point: 30° Wind: 3mph
Humidity: 36% Direction: 80° (E)
Pressure: 30.09in Gusts: 0mph
Raw Report DataKPHX 260551Z 08003KT 10SM BKN250 14/M01 A3009 RMK AO2 SLP180 T01391011 10233 20128 53008
Traffic Incident Summary
Active as of:
Severity:
Category:
InformationThere was an issue retrieving the traffic information for this location. Please try a different location or try again shortly.
Advertisements
Track Severe Weather on mobile